メインページ
METAR-TAF:

METAR-TAF

空港 :

プリンス・サイード・イブラヒーム国際空港

モロニ, コモロ

緯度: 11-32S, 経度: 043-16E, 海抜: 29m

現時点の気象観測

当レポートは47分前の12:00(UTC)に作成
南西の風 17kt
気温 31°C
湿度 66%
気圧 1014 hPa
視程10km以上
高度2000ftの雲はほとんどない, 塔状積雲.

METAR: FMCH 211200Z 22017KT 9999 FEW020TCU 31/24 Q1014 NOSIG

時間: 15:47 (12:47 UTC)

予報

当レポートは1時間47分前の11:00(UTC)に作成
予報は21日の 12時(UTC)から 22日の 18時(UTC)まで有効
南/南西の風 14kt
視程10km以上
高度2000ftの雲はほとんどない
21日の 16時(UTC)から 21日の 18時(UTC)まで徐々に
の風 4kt
22日の 04時(UTC)から 22日の 06時(UTC)まで徐々に
南西の風 12kt

TAF: FMCH 211100Z 2112/2218 20014KT 9999 FEW020 BECMG 2116/2118 10004KT BECMG 2204/2206 22012KT

4,000以上の空港の気象観測と天気予報(METAR報とTAF報)

利用可能な観測所は地図上に黄色い丸と赤い丸で示す。

丸の上にカーソルを重ねると観測所名を参照できる。

次にクリックすると気象観測と天気予報を参照できる。

マップの切り替え:黒色「×」印の緑ボタンをクリックして拡大、「-」印の緑ボタンをクリックして縮小、緑色の三角印をクリックして隣りの地図に切り替え


METAR-TAF: